Time;durP1;ratioP1;P1;durP2;ratioP2;P2;SDS_P1;SDS_P2;PMS_P1;PMS_P2;Temp;Humidity;BMP_temperature;BMP_pressure;BME280_temperature;BME280_humidity;BME280_pressure;Samples;Min_cycle;Max_cycle;Signal;HPM_P1;HPM_P2
2023/07/08 00:00:54;;;;;;;6.07;4.57;;;24.70;65.10;;;25.21;nan;100609.75;5035485;28;20638;-71
2023/07/08 00:03:21;;;;;;;6.27;4.27;;;24.60;65.40;;;25.17;nan;100611.19;5023236;28;20645;-70
2023/07/08 00:05:54;;;;;;;7.27;4.73;;;24.60;66.40;;;25.14;nan;100608.91;5011717;28;20700;-71
2023/07/08 00:08:21;;;;;;;5.90;4.03;;;24.60;65.80;;;25.13;nan;100604.63;5024109;28;21256;-70
2023/07/08 00:10:48;;;;;;;7.00;4.27;;;24.60;65.50;;;25.09;nan;100606.03;5015554;28;20628;-71
2023/07/08 00:13:15;;;;;;;7.70;3.80;;;24.50;65.50;;;25.08;nan;100593.72;5033618;28;20634;-70
2023/07/08 00:15:42;;;;;;;6.67;4.47;;;24.50;65.30;;;25.06;nan;100595.78;5015544;28;21212;-70
2023/07/08 00:18:17;;;;;;;7.03;4.47;;;24.50;65.60;;;25.03;nan;100590.84;5017538;28;20680;-71
2023/07/08 00:20:49;;;;;;;7.20;4.13;;;24.50;65.90;;;24.99;nan;100594.94;5028269;28;20663;-71
2023/07/08 00:23:21;;;;;;;6.23;4.20;;;24.40;66.50;;;24.96;nan;100587.38;5024186;28;21241;-69
2023/07/08 00:25:48;;;;;;;11.40;5.20;;;24.40;67.30;;;24.93;nan;100577.09;5018229;28;20643;-69
2023/07/08 00:28:19;;;;;;;5.97;4.93;;;24.40;67.50;;;24.88;nan;100584.88;5021342;28;20660;-71
2023/07/08 00:30:48;;;;;;;9.23;4.37;;;24.30;67.60;;;24.84;nan;100587.13;5020570;28;21271;-71
2023/07/08 00:33:16;;;;;;;7.53;4.00;;;24.30;68.30;;;24.80;nan;100577.06;5014347;28;20651;-70
2023/07/08 00:35:45;;;;;;;6.13;4.03;;;24.20;68.60;;;24.73;nan;100592.19;5020389;28;20648;-70
2023/07/08 00:38:19;;;;;;;6.27;4.20;;;24.20;69.00;;;24.68;nan;100590.97;5015031;28;21106;-72
2023/07/08 00:41:01;;;;;;;6.57;4.37;;;24.10;69.00;;;24.62;nan;100598.94;5010219;28;20626;-69
2023/07/08 00:43:42;;;;;;;6.70;4.10;;;24.10;68.90;;;24.52;nan;100598.53;5009100;28;20637;-69
2023/07/08 00:46:31;;;;;;;6.80;3.90;;;24.00;68.60;;;24.51;nan;100597.69;5011569;28;20613;-70
2023/07/08 00:49:07;;;;;;;4.70;3.50;;;24.00;67.30;;;24.51;nan;100605.69;5028151;28;20710;-70
2023/07/08 00:51:39;;;;;;;7.03;4.50;;;24.00;67.10;;;24.48;nan;100608.78;5011431;28;20637;-71
2023/07/08 00:54:16;;;;;;;6.70;4.00;;;23.90;66.80;;;24.48;nan;100608.78;5012182;28;20661;-69
2023/07/08 00:57:02;;;;;;;8.93;3.80;;;23.90;66.60;;;24.46;nan;100613.50;5016077;28;20664;-71
2023/07/08 01:00:04;;;;;;;8.67;4.17;;;23.90;66.10;;;24.48;nan;100619.47;5015521;28;20637;-71
2023/07/08 01:02:37;;;;;;;8.00;4.27;;;23.90;66.00;;;24.46;nan;100623.34;5006256;28;20667;-71
2023/07/08 01:05:22;;;;;;;5.20;3.80;;;23.90;65.70;;;24.41;nan;100631.09;5016936;28;20644;-71
2023/07/08 01:07:57;;;;;;;6.97;3.60;;;23.90;66.00;;;24.38;nan;100637.66;5029729;28;21266;-71
2023/07/08 01:10:39;;;;;;;5.00;3.50;;;23.80;65.40;;;24.33;nan;100640.13;5010625;28;21008;-70
2023/07/08 01:13:09;;;;;;;4.80;3.20;;;23.80;65.20;;;24.28;nan;100631.06;5030653;28;21201;-71
2023/07/08 01:15:43;;;;;;;7.30;3.50;;;23.70;65.00;;;24.27;nan;100627.59;5023763;28;20641;-69
2023/07/08 01:18:16;;;;;;;7.20;4.40;;;23.70;64.80;;;24.24;nan;100625.31;5010479;28;20645;-70
2023/07/08 01:20:43;;;;;;;4.93;3.50;;;23.70;65.00;;;24.21;nan;100619.56;5020866;28;20632;-71
2023/07/08 01:23:11;;;;;;;7.60;4.57;;;23.70;65.00;;;24.19;nan;100622.41;5030083;28;20678;-71
2023/07/08 01:25:43;;;;;;;8.90;5.23;;;23.60;65.00;;;24.18;nan;100615.44;5024520;28;20639;-70
2023/07/08 01:28:10;;;;;;;10.63;4.83;;;23.60;65.10;;;24.17;nan;100616.44;5020618;28;21049;-71
2023/07/08 01:30:37;;;;;;;10.53;4.90;;;23.60;65.60;;;24.18;nan;100611.94;5011438;28;20633;-70
2023/07/08 01:33:13;;;;;;;10.00;5.73;;;23.60;65.80;;;24.19;nan;100598.41;5013287;28;20641;-68
2023/07/08 01:35:40;;;;;;;10.37;5.57;;;23.60;66.00;;;24.20;nan;100600.06;5023805;28;20649;-70
2023/07/08 01:38:11;;;;;;;7.80;5.23;;;23.60;66.50;;;24.19;nan;100598.41;5016852;28;21053;-70
2023/07/08 01:40:48;;;;;;;7.83;5.10;;;23.60;66.60;;;24.18;nan;100599.44;5026228;28;20644;-71
2023/07/08 01:43:15;;;;;;;7.60;5.00;;;23.60;66.80;;;24.18;nan;100595.94;5009872;28;20726;-69
2023/07/08 01:45:43;;;;;;;8.67;5.33;;;23.60;67.00;;;24.13;nan;100599.22;5024840;28;20613;-70
2023/07/08 01:48:17;;;;;;;9.63;5.10;;;23.60;67.40;;;24.11;nan;100598.59;5023488;28;20658;-70
2023/07/08 01:51:03;;;;;;;9.10;5.40;;;23.50;67.60;;;24.10;nan;100588.97;5011543;28;20613;-70
2023/07/08 01:53:37;;;;;;;10.20;6.00;;;23.50;67.60;;;24.09;nan;100581.97;5009514;28;20686;-70
2023/07/08 01:56:05;;;;;;;9.57;5.47;;;23.50;68.10;;;24.06;nan;100585.03;5025607;28;20653;-70
2023/07/08 01:58:33;;;;;;;11.50;6.20;;;23.50;68.40;;;24.03;nan;100596.06;5036861;28;20667;-71
2023/07/08 02:01:01;;;;;;;9.67;6.10;;;23.50;69.20;;;24.01;nan;100589.28;5033241;28;20636;-72
2023/07/08 02:03:28;;;;;;;6.70;4.23;;;23.40;69.60;;;23.98;nan;100589.69;5038234;28;20667;-70
2023/07/08 02:05:55;;;;;;;9.97;5.60;;;23.40;70.30;;;23.95;nan;100587.41;5030911;28;20641;-71
2023/07/08 02:08:23;;;;;;;8.03;5.23;;;23.40;70.60;;;23.91;nan;100585.13;5011420;28;20660;-71
2023/07/08 02:10:55;;;;;;;10.00;4.80;;;23.40;70.80;;;23.91;nan;100585.13;5013262;28;20629;-69
2023/07/08 02:13:23;;;;;;;11.63;5.63;;;23.30;70.60;;;23.90;nan;100585.34;5021483;28;20628;-71
2023/07/08 02:15:51;;;;;;;9.53;5.27;;;23.30;70.60;;;23.89;nan;100587.16;5012421;28;21420;-70
2023/07/08 02:18:18;;;;;;;7.37;4.37;;;23.30;70.60;;;23.87;nan;100589.22;5032796;28;21269;-71
2023/07/08 02:20:46;;;;;;;7.13;4.80;;;23.30;70.60;;;23.86;nan;100576.91;5037289;28;20640;-70
2023/07/08 02:23:14;;;;;;;8.73;5.43;;;23.30;70.70;;;23.85;nan;100575.25;5020967;28;20681;-71
2023/07/08 02:25:50;;;;;;;7.03;5.03;;;23.30;70.80;;;23.85;nan;100574.47;5021248;28;20627;-70
2023/07/08 02:28:17;;;;;;;8.10;5.13;;;23.30;70.90;;;23.86;nan;100584.91;5032346;28;20666;-69
2023/07/08 02:30:46;;;;;;;11.03;5.30;;;23.30;71.20;;;23.84;nan;100581.63;5018726;28;20648;-70
2023/07/08 02:33:17;;;;;;;9.10;5.40;;;23.30;71.10;;;23.85;nan;100579.78;5025470;28;20663;-71
2023/07/08 02:35:45;;;;;;;7.73;4.90;;;23.30;71.20;;;23.83;nan;100584.47;5013077;28;20644;-70
2023/07/08 02:38:12;;;;;;;9.47;5.00;;;23.30;71.50;;;23.84;nan;100588.78;5018448;28;20673;-70
2023/07/08 02:40:39;;;;;;;5.77;4.67;;;23.30;71.90;;;23.81;nan;100597.16;5023577;28;21035;-71
2023/07/08 02:43:06;;;;;;;12.80;5.20;;;23.20;72.10;;;23.80;nan;100592.88;5007341;28;21052;-71
2023/07/08 02:45:34;;;;;;;9.33;5.53;;;23.20;72.30;;;23.79;nan;100601.88;5012334;28;20614;-70
2023/07/08 02:48:01;;;;;;;8.70;5.30;;;23.20;72.30;;;23.77;nan;100598.56;5028197;28;21273;-71
2023/07/08 02:50:28;;;;;;;6.83;4.43;;;23.20;72.30;;;23.78;nan;100601.06;5024520;28;20638;-71
2023/07/08 02:52:55;;;;;;;6.50;4.40;;;23.30;72.40;;;23.74;nan;100604.31;5023444;28;21209;-72
2023/07/08 02:55:22;;;;;;;6.87;4.13;;;23.20;72.60;;;23.71;nan;100610.03;5008700;28;20637;-70
2023/07/08 02:57:50;;;;;;;4.73;4.20;;;23.20;73.10;;;23.70;nan;100608.41;5032049;28;21249;-69
2023/07/08 03:00:17;;;;;;;8.17;4.60;;;23.20;73.50;;;23.69;nan;100609.41;5048794;28;21259;-68
2023/07/08 03:02:45;;;;;;;8.93;4.57;;;23.20;73.80;;;23.70;nan;100613.72;5026067;28;20688;-71
2023/07/08 03:05:13;;;;;;;7.17;5.30;;;23.20;73.90;;;23.68;nan;100613.09;5011394;28;20641;-71
2023/07/08 03:07:40;;;;;;;10.90;5.30;;;23.10;73.70;;;23.68;nan;100610.44;5022148;28;20664;-70
2023/07/08 03:10:08;;;;;;;8.73;5.07;;;23.20;74.00;;;23.68;nan;100616.56;5028300;28;20613;-69
2023/07/08 03:12:35;;;;;;;11.10;5.37;;;23.10;74.20;;;23.69;nan;100620.06;5023437;28;21234;-71
2023/07/08 03:15:04;;;;;;;5.50;4.17;;;23.10;74.20;;;23.67;nan;100617.59;5027668;28;20615;-70
2023/07/08 03:17:31;;;;;;;7.97;4.80;;;23.10;74.00;;;23.63;nan;100616.34;5023356;28;20672;-71
2023/07/08 03:19:58;;;;;;;5.30;3.90;;;23.10;74.20;;;23.57;nan;100606.47;5008531;28;20625;-71
2023/07/08 03:22:25;;;;;;;6.70;4.13;;;23.10;74.80;;;23.52;nan;100616.88;5022716;28;20676;-72
2023/07/08 03:24:52;;;;;;;5.40;3.80;;;23.00;75.10;;;23.48;nan;100614.78;5027579;28;21414;-68
2023/07/08 03:27:21;;;;;;;8.27;4.63;;;23.00;75.40;;;23.45;nan;100626.66;5044540;28;20655;-72
2023/07/08 03:29:48;;;;;;;9.40;5.60;;;22.90;75.80;;;23.41;nan;100608.59;5049506;28;20603;-70
2023/07/08 03:32:15;;;;;;;11.47;6.33;;;22.90;76.00;;;23.47;nan;100618.47;5017982;28;20648;-69
2023/07/08 03:34:42;;;;;;;10.60;5.67;;;22.90;75.60;;;23.49;nan;100616.44;5020647;28;20648;-70
2023/07/08 03:37:11;;;;;;;9.40;5.70;;;23.00;75.70;;;23.51;nan;100614.41;5008410;28;21248;-71
2023/07/08 03:39:38;;;;;;;12.53;4.80;;;23.00;75.90;;;23.47;nan;100618.47;5015594;28;21021;-70
2023/07/08 03:42:06;;;;;;;6.73;4.37;;;23.00;76.20;;;23.43;nan;100611.88;5008712;28;20680;-71
2023/07/08 03:44:33;;;;;;;7.43;4.67;;;22.90;76.60;;;23.38;nan;100622.31;5027424;28;20636;-72
2023/07/08 03:47:00;;;;;;;6.90;4.30;;;22.90;76.80;;;23.36;nan;100611.81;5021293;28;20664;-70
2023/07/08 03:49:27;;;;;;;9.70;5.23;;;22.80;77.10;;;23.38;nan;100619.63;5013024;28;20636;-71
2023/07/08 03:51:54;;;;;;;8.03;5.10;;;22.80;77.10;;;23.42;nan;100618.22;5009118;28;21201;-69
2023/07/08 03:54:24;;;;;;;6.53;4.70;;;22.90;77.00;;;23.45;nan;100623.16;5007656;28;21014;-70
2023/07/08 03:56:52;;;;;;;7.37;5.30;;;22.90;76.90;;;23.48;nan;100614.78;5024368;28;21288;-70
2023/07/08 03:59:19;;;;;;;8.40;5.00;;;22.90;77.00;;;23.54;nan;100614.84;5009485;28;20704;-70
2023/07/08 04:01:46;;;;;;;9.50;4.93;;;23.00;77.00;;;23.60;nan;100619.38;5033621;28;20635;-70
2023/07/08 04:04:15;;;;;;;9.73;5.60;;;23.10;77.20;;;23.60;nan;100624.72;5021251;28;20636;-70
2023/07/08 04:06:44;;;;;;;7.33;5.30;;;23.10;77.40;;;23.68;nan;100621.88;5008147;28;21509;-69
2023/07/08 04:09:12;;;;;;;9.83;5.70;;;23.10;77.30;;;23.77;nan;100619.88;5013885;28;21192;-70
2023/07/08 04:11:39;;;;;;;7.93;4.80;;;23.20;77.30;;;23.87;nan;100618.53;5027537;28;20640;-70
2023/07/08 04:14:06;;;;;;;8.93;5.20;;;23.30;77.00;;;24.01;nan;100624.75;5027521;28;20640;-70
2023/07/08 04:16:46;;;;;;;6.87;4.53;;;23.40;76.80;;;24.17;nan;100618.31;5019471;28;20628;-70
2023/07/08 04:19:14;;;;;;;10.73;6.07;;;23.60;76.60;;;24.22;nan;100614.03;4992911;28;20633;-69
2023/07/08 04:21:44;;;;;;;10.30;5.93;;;23.70;76.50;;;24.28;nan;100618.56;5024062;28;20611;-70
2023/07/08 04:24:14;;;;;;;6.97;4.90;;;23.70;76.20;;;24.28;nan;100615.06;5010063;28;20645;-71
2023/07/08 04:26:43;;;;;;;6.63;4.50;;;23.70;75.80;;;24.29;nan;100614.88;5022037;28;20656;-70
2023/07/08 04:29:15;;;;;;;14.00;5.40;;;23.70;75.80;;;24.30;nan;100615.72;5026449;28;20618;-70
2023/07/08 04:31:44;;;;;;;7.77;5.13;;;23.70;75.80;;;24.29;nan;100625.53;5016892;28;20983;-71
2023/07/08 04:34:11;;;;;;;6.30;4.47;;;23.70;75.70;;;24.30;nan;100629.84;5026766;28;20616;-70
2023/07/08 04:36:38;;;;;;;8.30;4.80;;;23.70;75.60;;;24.31;nan;100628.81;5027549;28;20673;-70
2023/07/08 04:39:07;;;;;;;4.50;3.60;;;23.80;75.30;;;24.33;nan;100632.13;5016087;28;20634;-70
2023/07/08 04:41:40;;;;;;;6.63;4.60;;;23.80;75.70;;;24.32;nan;100635.00;5039420;28;20666;-70
2023/07/08 04:44:10;;;;;;;5.33;4.17;;;23.80;74.80;;;24.29;nan;100636.22;5016900;28;20661;-71
2023/07/08 04:46:41;;;;;;;8.43;5.73;;;23.70;75.10;;;24.35;nan;100640.75;5014873;28;20665;-71
2023/07/08 04:49:11;;;;;;;4.83;4.27;;;23.80;75.20;;;24.52;nan;100641.22;5012314;28;20637;-71
2023/07/08 04:51:40;;;;;;;8.00;3.97;;;23.90;75.20;;;24.71;nan;100640.44;5031671;28;20635;-70
2023/07/08 04:54:07;;;;;;;5.87;4.60;;;24.10;74.40;;;24.96;nan;100644.22;5017325;28;20641;-69
2023/07/08 04:56:43;;;;;;;5.60;4.40;;;24.40;74.10;;;25.17;nan;100653.91;5035567;28;20668;-71
2023/07/08 04:59:16;;;;;;;4.00;3.63;;;24.60;73.30;;;25.29;nan;100663.78;5024839;28;20686;-70
2023/07/08 05:01:43;;;;;;;5.07;3.80;;;24.70;73.00;;;25.31;nan;100661.72;5012797;28;20635;-71
2023/07/08 05:04:15;;;;;;;4.30;3.37;;;24.80;73.50;;;25.51;nan;100674.28;5017236;28;21394;-70
2023/07/08 05:06:42;;;;;;;7.07;3.40;;;24.90;74.00;;;25.71;nan;100675.91;5010470;28;21224;-70
2023/07/08 05:09:10;;;;;;;5.93;3.37;;;25.10;74.30;;;25.82;nan;100672.63;5021425;28;21515;-70
2023/07/08 05:11:37;;;;;;;7.00;4.07;;;25.30;73.80;;;25.70;nan;100668.13;5016889;28;21156;-70
2023/07/08 05:14:05;;;;;;;4.60;3.50;;;25.20;72.30;;;25.49;nan;100679.81;5011377;28;20644;-71
2023/07/08 05:16:35;;;;;;;6.53;4.40;;;25.00;71.90;;;25.30;nan;100668.06;5017525;28;21207;-70
2023/07/08 05:19:03;;;;;;;7.17;4.60;;;24.80;71.70;;;25.16;nan;100665.59;5022607;28;20642;-70
2023/07/08 05:21:33;;;;;;;3.63;2.80;;;24.70;72.00;;;25.06;nan;100662.53;5029317;28;20648;-71
2023/07/08 05:24:02;;;;;;;5.33;3.67;;;24.60;71.90;;;24.96;nan;100678.13;5000987;28;20668;-70
2023/07/08 05:26:30;;;;;;;3.87;3.20;;;24.50;72.20;;;24.86;nan;100677.66;5039380;28;21005;-69
2023/07/08 05:28:57;;;;;;;8.40;5.07;;;24.40;72.50;;;24.73;nan;100669.59;5041575;28;20639;-70
2023/07/08 05:31:24;;;;;;;10.53;4.40;;;24.20;72.60;;;24.71;nan;100683.13;5050165;28;21158;-70
2023/07/08 05:34:04;;;;;;;4.20;3.50;;;24.20;72.60;;;24.74;nan;100693.44;5030635;28;20663;-70
2023/07/08 05:36:31;;;;;;;3.13;2.83;;;24.20;72.20;;;24.77;nan;100686.91;5009290;28;20610;-70
2023/07/08 05:38:58;;;;;;;8.10;4.17;;;24.20;72.90;;;24.72;nan;100683.97;5014658;28;20655;-70
2023/07/08 05:41:25;;;;;;;7.30;4.50;;;24.20;72.20;;;24.73;nan;100681.09;5027567;28;21053;-70
2023/07/08 05:43:53;;;;;;;8.10;4.60;;;24.20;72.60;;;24.81;nan;100685.47;5013040;28;20681;-71
2023/07/08 05:46:19;;;;;;;4.40;3.30;;;24.20;72.60;;;24.83;nan;100670.06;5018735;28;20617;-70
2023/07/08 05:48:48;;;;;;;4.73;3.60;;;24.30;73.20;;;24.74;nan;100666.75;5009497;28;20637;-70
2023/07/08 05:51:15;;;;;;;3.90;3.20;;;24.20;73.60;;;24.68;nan;100684.34;5011470;28;20601;-70
2023/07/08 05:53:42;;;;;;;6.47;3.70;;;24.10;73.60;;;24.63;nan;100694.81;5008105;28;20664;-69
2023/07/08 05:56:09;;;;;;;4.17;3.57;;;24.10;73.90;;;24.51;nan;100707.06;5011644;28;20635;-70
2023/07/08 05:58:36;;;;;;;4.10;3.17;;;24.00;74.30;;;24.40;nan;100709.50;5007767;28;20665;-69
2023/07/08 06:01:04;;;;;;;3.37;2.67;;;23.90;74.70;;;24.32;nan;100713.13;5016018;28;20628;-70
2023/07/08 06:03:32;;;;;;;7.70;3.13;;;23.80;75.00;;;24.22;nan;100712.66;5015827;28;21247;-69
2023/07/08 06:05:59;;;;;;;3.80;2.90;;;23.70;75.40;;;24.21;nan;100726.19;5037128;28;21197;-69
2023/07/08 06:08:26;;;;;;;5.20;3.53;;;23.70;75.70;;;24.22;nan;100734.00;5024075;28;20997;-70
2023/07/08 06:10:53;;;;;;;6.30;3.90;;;23.70;76.00;;;24.22;nan;100728.66;5011051;28;21211;-70
2023/07/08 06:13:20;;;;;;;7.03;3.70;;;23.70;75.70;;;24.24;nan;100725.78;5018899;28;20644;-69
2023/07/08 06:15:47;;;;;;;5.57;3.60;;;23.70;75.20;;;24.24;nan;100734.63;5024353;28;20613;-71
2023/07/08 06:18:14;;;;;;;7.83;3.80;;;23.70;74.10;;;24.23;nan;100738.31;5012033;28;21236;-69
2023/07/08 06:20:56;;;;;;;4.30;3.23;;;23.70;74.70;;;24.28;nan;100738.53;5010945;28;20671;-70
2023/07/08 06:23:24;;;;;;;6.17;3.30;;;23.80;75.60;;;24.28;nan;100729.72;5009838;28;20678;-70
2023/07/08 06:25:52;;;;;;;5.17;2.97;;;23.80;76.00;;;24.29;nan;100716.19;5010269;28;20656;-69
2023/07/08 06:28:20;;;;;;;4.87;3.27;;;23.70;75.70;;;24.37;nan;100702.69;5019157;28;20652;-69
2023/07/08 06:30:47;;;;;;;4.30;3.23;;;23.90;74.20;;;24.52;nan;100711.38;5011551;28;21207;-70
2023/07/08 06:33:15;;;;;;;3.80;2.53;;;24.00;73.60;;;24.89;nan;100722.63;5011960;28;20641;-68
2023/07/08 06:35:44;;;;;;;2.93;2.73;;;24.20;72.40;;;25.49;nan;100719.88;5023142;28;20754;-70
2023/07/08 06:38:13;;;;;;;3.20;2.70;;;24.80;71.90;;;26.47;nan;100724.34;5010832;28;20677;-69
2023/07/08 06:40:40;;;;;;;4.83;3.30;;;25.70;70.20;;;27.50;nan;100727.50;5010253;28;20641;-70
2023/07/08 06:43:07;;;;;;;2.70;2.50;;;26.70;68.00;;;28.39;nan;100716.34;5018547;28;20680;-67
2023/07/08 06:45:34;;;;;;;4.07;3.53;;;27.60;65.30;;;29.35;nan;100727.09;5010868;28;20644;-70
2023/07/08 06:48:01;;;;;;;5.00;3.10;;;28.50;62.80;;;30.20;nan;100731.06;5016119;28;20660;-70
2023/07/08 06:50:28;;;;;;;3.43;3.00;;;29.40;61.30;;;30.76;nan;100743.81;5016793;28;21030;-69
2023/07/08 06:52:55;;;;;;;4.67;3.50;;;30.10;58.80;;;30.57;nan;100735.09;5023716;28;20617;-69
2023/07/08 06:55:23;;;;;;;5.07;4.47;;;30.00;58.70;;;30.96;nan;100728.09;5023184;28;20640;-70
2023/07/08 06:57:51;;;;;;;4.37;3.73;;;30.30;58.70;;;32.06;nan;100723.75;5030860;28;20653;-69
2023/07/08 07:00:18;;;;;;;3.90;3.10;;;31.20;56.80;;;33.17;nan;100717.84;5022277;28;21030;-70
2023/07/08 07:02:45;;;;;;;6.23;3.63;;;32.30;54.40;;;33.99;nan;100723.63;5029656;28;20631;-68
2023/07/08 07:05:12;;;;;;;5.80;3.37;;;33.20;53.00;;;34.68;nan;100724.28;5027926;28;20628;-69
2023/07/08 07:07:39;;;;;;;8.37;3.90;;;33.90;52.50;;;35.25;nan;100729.56;5026357;28;20786;-70
2023/07/08 07:10:07;;;;;;;3.83;3.10;;;34.50;51.90;;;35.87;nan;100729.31;5020474;28;21060;-70
2023/07/08 07:12:35;;;;;;;4.40;3.20;;;35.00;51.80;;;36.49;nan;100726.19;5020524;28;20641;-68
2023/07/08 07:15:03;;;;;;;5.93;3.70;;;35.70;50.00;;;36.62;nan;100732.91;5011450;28;20644;-67
2023/07/08 07:17:30;;;;;;;4.77;3.60;;;36.00;48.80;;;35.79;nan;100738.00;5027312;28;20660;-68
2023/07/08 07:19:57;;;;;;;3.47;3.27;;;35.30;48.90;;;34.82;nan;100735.44;5010081;28;20655;-68
2023/07/08 07:22:24;;;;;;;7.20;3.67;;;34.40;49.50;;;33.97;nan;100749.38;5030084;28;20630;-69
2023/07/08 07:24:51;;;;;;;6.77;3.57;;;33.60;50.20;;;34.39;nan;100747.47;5013953;28;20684;-67
2023/07/08 07:27:19;;;;;;;5.90;2.93;;;33.70;50.30;;;35.27;nan;100743.69;5037163;28;20761;-69
2023/07/08 07:29:49;;;;;;;3.27;2.97;;;34.60;49.20;;;35.70;nan;100754.03;5041710;28;20620;-70
2023/07/08 07:32:18;;;;;;;3.50;3.20;;;35.00;48.80;;;35.32;nan;100761.88;5030415;28;21175;-67
2023/07/08 07:34:49;;;;;;;5.37;3.93;;;34.80;48.60;;;34.40;nan;100749.06;5027021;28;20612;-68
2023/07/08 07:37:19;;;;;;;4.23;3.37;;;34.00;49.40;;;33.30;nan;100744.47;5011715;28;20666;-68
2023/07/08 07:39:47;;;;;;;3.90;2.80;;;33.00;50.80;;;32.29;nan;100738.91;5023216;28;20637;-69
2023/07/08 07:42:15;;;;;;;5.30;2.67;;;32.00;52.40;;;31.65;nan;100751.97;5005516;28;21053;-67
2023/07/08 07:44:43;;;;;;;3.70;3.20;;;31.40;53.60;;;31.12;nan;100759.63;5007668;28;20653;-68
2023/07/08 07:47:10;;;;;;;4.00;2.57;;;30.80;54.50;;;30.65;nan;100750.88;5026859;28;20664;-69
2023/07/08 07:49:38;;;;;;;3.70;3.30;;;30.30;55.60;;;30.31;nan;100749.06;5022458;28;20609;-68
2023/07/08 07:52:06;;;;;;;3.17;2.70;;;29.90;56.50;;;30.08;nan;100759.84;5012272;28;20636;-67
2023/07/08 07:54:33;;;;;;;4.03;3.10;;;29.60;57.10;;;29.88;nan;100746.72;5013228;28;20684;-68
2023/07/08 07:57:00;;;;;;;5.00;2.70;;;29.40;57.80;;;29.76;nan;100756.66;5016948;28;21255;-67
2023/07/08 07:59:27;;;;;;;4.37;2.90;;;29.20;58.60;;;29.66;nan;100767.16;5030680;28;20694;-67
2023/07/08 08:01:54;;;;;;;4.30;3.60;;;29.10;59.40;;;29.51;nan;100764.09;5020826;28;20648;-68
2023/07/08 08:04:21;;;;;;;3.30;3.00;;;29.00;60.20;;;29.42;nan;100773.53;5021482;28;20661;-68
2023/07/08 08:06:48;;;;;;;8.83;3.13;;;28.90;61.30;;;29.38;nan;100772.34;5026267;28;20672;-67
2023/07/08 08:09:16;;;;;;;3.33;3.00;;;28.90;63.10;;;29.33;nan;100777.56;5012337;28;20637;-66
2023/07/08 08:11:43;;;;;;;4.83;2.93;;;28.80;64.20;;;29.35;nan;100779.00;5013322;28;21192;-67
2023/07/08 08:14:10;;;;;;;2.80;2.60;;;28.80;65.00;;;29.45;nan;100776.59;5019996;28;20721;-70
2023/07/08 08:16:37;;;;;;;2.70;2.50;;;28.90;65.30;;;29.73;nan;100774.09;5025606;28;20661;-69
2023/07/08 08:19:04;;;;;;;2.90;2.50;;;29.10;66.10;;;30.87;nan;100778.03;5027064;28;20986;-68
2023/07/08 08:21:34;;;;;;;3.10;2.67;;;30.10;65.20;;;32.63;nan;100781.81;5013685;28;20632;-68
2023/07/08 08:24:01;;;;;;;4.20;2.63;;;31.70;63.10;;;34.38;nan;100789.97;5038673;28;21035;-69
2023/07/08 08:26:28;;;;;;;2.30;2.10;;;33.60;60.40;;;36.22;nan;100804.50;5035193;28;20625;-68
2023/07/08 08:28:59;;;;;;;2.20;2.03;;;35.40;58.00;;;37.83;nan;100811.88;5023397;28;20686;-67
2023/07/08 08:31:31;;;;;;;3.47;2.87;;;37.00;56.10;;;39.18;nan;100820.47;5010297;28;20620;-71
2023/07/08 08:33:58;;;;;;;3.10;2.90;;;38.40;54.40;;;39.86;nan;100817.22;5015782;28;20990;-67
2023/07/08 08:36:25;;;;;;;2.60;2.50;;;39.30;52.70;;;39.67;nan;100811.00;5019759;28;20617;-69
2023/07/08 08:38:58;;;;;;;3.43;2.80;;;39.40;51.90;;;39.31;nan;100814.28;5010336;28;20704;-67
2023/07/08 08:41:36;;;;;;;2.20;2.10;;;39.10;51.90;;;39.01;nan;100801.03;5011076;28;20645;-69
2023/07/08 08:44:06;;;;;;;2.67;2.47;;;38.70;52.40;;;39.20;nan;100804.63;5021779;28;20668;-69
2023/07/08 08:46:56;;;;;;;2.33;2.10;;;38.60;52.60;;;39.20;nan;100801.88;5014446;28;20625;-70
2023/07/08 08:49:35;;;;;;;3.00;2.43;;;38.60;52.20;;;39.22;nan;100799.66;5017909;28;20609;-68
2023/07/08 08:52:02;;;;;;;4.43;2.73;;;38.40;52.30;;;38.85;nan;100796.88;5018735;28;20646;-67
2023/07/08 08:54:30;;;;;;;2.80;2.60;;;38.10;52.50;;;38.49;nan;100791.06;5019057;28;20645;-69
2023/07/08 08:57:28;;;;;;;3.20;3.00;;;37.60;53.10;;;37.76;nan;100784.94;5018553;28;21019;-69
2023/07/08 08:59:57;;;;;;;3.20;2.90;;;37.00;53.30;;;37.09;nan;100783.00;5010835;28;20623;-67
2023/07/08 09:02:49;;;;;;;4.23;2.10;;;36.40;54.30;;;36.29;nan;100794.16;5026965;28;20646;-68
2023/07/08 09:05:21;;;;;;;2.90;2.70;;;35.70;54.60;;;35.16;nan;100782.75;5048925;28;20655;-68
2023/07/08 09:08:12;;;;;;;2.23;2.10;;;34.70;55.20;;;34.43;nan;100781.06;5025190;28;20679;-69
2023/07/08 09:11:05;;;;;;;3.20;2.60;;;33.90;56.40;;;33.97;nan;100784.56;5023406;28;21254;-69
2023/07/08 09:13:35;;;;;;;2.70;2.50;;;33.40;57.10;;;33.69;nan;100784.88;5035238;28;20622;-66
2023/07/08 09:16:40;;;;;;;2.73;2.00;;;33.10;57.50;;;33.47;nan;100771.41;5011054;28;20944;-68
2023/07/08 09:19:13;;;;;;;3.00;2.70;;;32.90;57.70;;;33.23;nan;100775.47;5013404;28;20647;-67
2023/07/08 09:21:53;;;;;;;7.90;2.80;;;32.60;57.70;;;32.95;nan;100767.56;5020852;28;20695;-67
2023/07/08 09:24:42;;;;;;;3.53;2.90;;;32.40;58.10;;;32.72;nan;100768.69;5015018;28;20669;-64
2023/07/08 09:27:09;;;;;;;3.67;2.33;;;32.20;58.40;;;32.57;nan;100765.78;5028844;28;20660;-69
2023/07/08 09:29:36;;;;;;;3.37;2.97;;;32.00;59.10;;;32.57;nan;100763.09;5023604;28;20616;-70
2023/07/08 09:32:17;;;;;;;3.30;2.87;;;31.90;59.30;;;32.40;nan;100760.41;5023798;28;20628;-67
2023/07/08 09:34:53;;;;;;;4.50;2.47;;;31.80;59.50;;;32.31;nan;100763.81;5022974;28;20644;-67
2023/07/08 09:37:38;;;;;;;4.20;3.33;;;31.70;59.70;;;32.29;nan;100757.81;5024721;28;21568;-70
2023/07/08 09:40:20;;;;;;;3.40;2.57;;;31.70;60.70;;;32.25;nan;100757.50;5011686;28;21013;-67
2023/07/08 09:42:52;;;;;;;4.20;2.80;;;31.60;60.00;;;32.22;nan;100763.41;5005113;28;21011;-69
2023/07/08 09:45:23;;;;;;;3.90;3.30;;;31.50;60.00;;;32.22;nan;100768.81;5028472;28;20656;-67
2023/07/08 09:47:57;;;;;;;4.17;2.40;;;31.50;59.90;;;32.20;nan;100770.13;5027402;28;20664;-67
2023/07/08 09:50:31;;;;;;;4.07;3.20;;;31.60;59.80;;;32.22;nan;100758.03;5015790;28;20636;-67
2023/07/08 09:53:01;;;;;;;3.17;2.80;;;31.60;60.00;;;32.37;nan;100765.50;5010890;28;20636;-67
2023/07/08 09:55:28;;;;;;;3.60;3.17;;;31.70;59.80;;;32.55;nan;100765.22;5019909;28;20688;-66
2023/07/08 09:57:58;;;;;;;3.50;3.13;;;32.00;59.70;;;32.86;nan;100759.13;5011450;28;20683;-68
2023/07/08 10:00:39;;;;;;;4.07;3.20;;;32.30;59.10;;;33.23;nan;100765.50;5024689;28;20630;-67
2023/07/08 10:03:20;;;;;;;5.10;2.90;;;32.70;58.60;;;33.76;nan;100774.63;5010584;28;20632;-67
2023/07/08 10:05:50;;;;;;;3.23;3.00;;;33.30;58.00;;;34.22;nan;100771.19;5008968;28;20652;-66
2023/07/08 10:08:22;;;;;;;4.40;3.53;;;33.90;56.80;;;34.45;nan;100762.66;5018441;28;21028;-69
2023/07/08 10:11:02;;;;;;;3.93;3.53;;;34.10;56.50;;;34.30;nan;100762.56;5017914;28;20637;-71
2023/07/08 10:13:41;;;;;;;3.50;3.20;;;33.90;56.40;;;34.12;nan;100765.69;5020877;28;20617;-69
2023/07/08 10:16:33;;;;;;;6.07;2.90;;;33.60;56.90;;;33.84;nan;100763.34;5006205;28;21182;-67
2023/07/08 10:19:01;;;;;;;3.90;3.60;;;33.20;57.50;;;33.57;nan;100760.69;5011225;28;20991;-67
2023/07/08 10:22:04;;;;;;;4.93;3.80;;;32.90;58.00;;;33.38;nan;100756.69;5002442;28;20641;-68
2023/07/08 10:24:58;;;;;;;2.60;2.40;;;32.70;58.40;;;33.14;nan;100758.09;5035573;28;20679;-69
2023/07/08 10:27:38;;;;;;;4.07;3.40;;;32.50;58.50;;;32.96;nan;100758.41;5022076;28;21417;-67
2023/07/08 10:30:35;;;;;;;4.50;3.77;;;32.30;58.80;;;32.87;nan;100758.88;5023588;28;20697;-67
2023/07/08 10:33:36;;;;;;;3.53;3.23;;;32.20;59.30;;;32.77;nan;100747.94;5001968;28;20613;-67
2023/07/08 10:36:40;;;;;;;3.00;2.80;;;32.10;59.80;;;32.54;nan;100758.19;5026456;28;20976;-67
2023/07/08 10:39:44;;;;;;;2.50;2.30;;;31.90;60.50;;;32.38;nan;100751.75;5024893;28;21011;-69
2023/07/08 10:42:41;;;;;;;9.77;5.97;;;31.80;60.50;;;32.20;nan;100749.31;5012723;28;20625;-67